createdAt,value
2023-01-02T00:00:55.684Z,3.59
2023-01-02T00:03:24.871Z,3.60
2023-01-02T00:05:51.977Z,3.77
2023-01-02T00:08:19.376Z,3.50
2023-01-02T00:10:52.743Z,3.55
2023-01-02T00:13:20.145Z,4.01
2023-01-02T00:15:46.938Z,4.13
2023-01-02T00:18:14.020Z,4.03
2023-01-02T00:20:41.041Z,4.09
2023-01-02T00:23:12.831Z,3.90
2023-01-02T00:25:40.616Z,3.75
2023-01-02T00:28:07.532Z,3.86
2023-01-02T00:30:38.622Z,3.87
2023-01-02T00:33:06.616Z,3.81
2023-01-02T00:35:33.805Z,3.85
2023-01-02T00:38:00.880Z,3.77
2023-01-02T00:40:28.466Z,3.42
2023-01-02T00:42:55.441Z,3.58
2023-01-02T00:45:22.831Z,3.41
2023-01-02T00:47:50.281Z,3.42
2023-01-02T00:50:23.133Z,3.50
2023-01-02T00:52:52.871Z,3.53
2023-01-02T00:55:19.791Z,3.57
2023-01-02T00:57:47.194Z,3.56
2023-01-02T01:00:19.959Z,3.36
2023-01-02T01:02:56.685Z,3.54
2023-01-02T01:05:24.538Z,3.34
2023-01-02T01:07:52.238Z,3.27
2023-01-02T01:10:22.789Z,3.36
2023-01-02T01:12:51.023Z,3.22
2023-01-02T01:15:23.819Z,3.20
2023-01-02T01:17:50.937Z,3.33
2023-01-02T01:20:18.074Z,3.41
2023-01-02T01:22:45.209Z,3.55
2023-01-02T01:25:11.939Z,3.44
2023-01-02T01:27:41.577Z,3.42
2023-01-02T01:30:09.571Z,3.37
2023-01-02T01:32:42.222Z,3.13
2023-01-02T01:35:09.612Z,3.52
2023-01-02T01:37:38.754Z,3.51
2023-01-02T01:40:07.944Z,3.52
2023-01-02T01:42:34.692Z,3.27
2023-01-02T01:45:02.899Z,3.20
2023-01-02T01:47:53.076Z,3.13
2023-01-02T01:50:28.849Z,3.47
2023-01-02T01:52:58.085Z,3.25
2023-01-02T01:55:33.592Z,3.41
2023-01-02T01:58:08.979Z,3.42
2023-01-02T02:00:36.273Z,3.97
2023-01-02T02:03:34.327Z,3.58
2023-01-02T02:06:01.459Z,3.33
2023-01-02T02:08:53.437Z,3.53
2023-01-02T02:11:25.383Z,3.61
2023-01-02T02:13:52.339Z,3.55
2023-01-02T02:16:26.347Z,3.36
2023-01-02T02:19:26.795Z,3.35
2023-01-02T02:22:33.335Z,3.34
2023-01-02T02:25:39.451Z,3.00
2023-01-02T02:28:43.645Z,3.65
2023-01-02T02:31:19.050Z,3.32
2023-01-02T02:34:04.328Z,3.42
2023-01-02T02:37:28.508Z,3.26
2023-01-02T02:40:32.772Z,3.12
2023-01-02T02:43:37.408Z,3.31
2023-01-02T02:46:21.608Z,3.47
2023-01-02T02:49:19.950Z,3.09
2023-01-02T02:51:53.286Z,3.51
2023-01-02T02:54:50.353Z,3.32
2023-01-02T02:57:18.429Z,3.18
2023-01-02T02:59:46.164Z,3.42
2023-01-02T03:02:16.665Z,3.67
2023-01-02T03:04:53.076Z,3.57
2023-01-02T03:07:56.661Z,3.27
2023-01-02T03:10:33.328Z,3.30
2023-01-02T03:13:14.956Z,3.33
2023-01-02T03:16:22.065Z,3.24
2023-01-02T03:19:23.136Z,3.19
2023-01-02T03:22:20.149Z,3.35
2023-01-02T03:24:47.789Z,3.96
2023-01-02T03:27:18.191Z,3.94
2023-01-02T03:29:50.036Z,3.47
2023-01-02T03:32:40.690Z,4.68
2023-01-02T03:35:15.738Z,3.47
2023-01-02T03:37:49.922Z,3.52
2023-01-02T03:40:45.118Z,3.33
2023-01-02T03:43:20.748Z,3.51
2023-01-02T03:46:10.420Z,3.66
2023-01-02T03:48:56.080Z,3.11
2023-01-02T03:51:24.182Z,3.51
2023-01-02T03:53:52.143Z,3.22
2023-01-02T03:56:45.454Z,3.21
2023-01-02T03:59:47.282Z,3.39
2023-01-02T04:02:48.357Z,3.34
2023-01-02T04:05:23.488Z,3.28
2023-01-02T04:07:56.597Z,3.06
2023-01-02T04:10:24.428Z,3.17
2023-01-02T04:12:53.701Z,3.10
2023-01-02T04:15:23.158Z,3.04
2023-01-02T04:17:57.564Z,2.87
2023-01-02T04:20:32.066Z,3.36
2023-01-02T04:23:19.776Z,3.29
2023-01-02T04:25:59.343Z,3.46
2023-01-02T04:28:28.388Z,3.70
2023-01-02T04:30:57.936Z,3.23
2023-01-02T04:33:24.905Z,3.86
2023-01-02T04:35:57.751Z,3.22
2023-01-02T04:38:30.665Z,3.25
2023-01-02T04:41:00.420Z,2.94
2023-01-02T04:43:33.803Z,3.23
2023-01-02T04:46:01.255Z,3.54
2023-01-02T04:48:28.380Z,2.98
2023-01-02T04:50:55.449Z,2.86
2023-01-02T04:53:22.357Z,2.96
2023-01-02T04:55:49.334Z,2.89
2023-01-02T04:58:16.263Z,2.70
2023-01-02T05:00:43.181Z,2.92
2023-01-02T05:03:10.269Z,3.32
2023-01-02T05:05:42.961Z,3.65
2023-01-02T05:08:16.601Z,3.15
2023-01-02T05:10:43.512Z,3.03
2023-01-02T05:13:11.426Z,2.72
2023-01-02T05:15:38.616Z,2.97
2023-01-02T05:18:05.489Z,2.81
2023-01-02T05:20:38.277Z,2.97
2023-01-02T05:23:05.291Z,3.27
2023-01-02T05:25:32.961Z,3.04
2023-01-02T05:27:59.991Z,3.00
2023-01-02T05:30:27.004Z,3.32
2023-01-02T05:32:54.746Z,2.82
2023-01-02T05:35:32.548Z,3.04
2023-01-02T05:38:25.385Z,3.28
2023-01-02T05:41:04.495Z,3.33
2023-01-02T05:43:35.537Z,3.32
2023-01-02T05:46:12.799Z,3.01
2023-01-02T05:48:39.758Z,3.10
2023-01-02T05:51:08.651Z,3.18
2023-01-02T05:53:37.335Z,3.01
2023-01-02T05:56:11.941Z,3.19
2023-01-02T05:58:40.283Z,3.37
2023-01-02T06:01:12.245Z,3.23
2023-01-02T06:03:46.233Z,3.42
2023-01-02T06:06:13.483Z,3.39
2023-01-02T06:08:40.286Z,3.56
2023-01-02T06:11:07.335Z,3.38
2023-01-02T06:13:34.859Z,3.36
2023-01-02T06:16:01.993Z,3.17
2023-01-02T06:18:30.020Z,3.06
2023-01-02T06:21:00.831Z,3.32
2023-01-02T06:23:28.402Z,2.90
2023-01-02T06:26:21.757Z,2.83
2023-01-02T06:28:50.356Z,3.08
2023-01-02T06:31:19.334Z,3.44
2023-01-02T06:33:46.106Z,3.31
2023-01-02T06:36:18.910Z,3.24
2023-01-02T06:38:45.679Z,3.05
2023-01-02T06:41:14.770Z,2.83
2023-01-02T06:43:43.535Z,2.91
2023-01-02T06:46:12.095Z,3.58
2023-01-02T06:48:41.694Z,3.26
2023-01-02T06:51:10.207Z,2.98
2023-01-02T06:53:38.259Z,2.91
2023-01-02T06:56:06.513Z,3.04
2023-01-02T06:58:38.874Z,3.04
2023-01-02T07:01:17.246Z,2.97
2023-01-02T07:03:44.489Z,3.10
2023-01-02T07:06:13.074Z,3.18
2023-01-02T07:08:40.453Z,3.14
2023-01-02T07:11:18.025Z,2.76
2023-01-02T07:13:45.427Z,2.92
2023-01-02T07:16:13.879Z,2.87
2023-01-02T07:18:42.507Z,2.98
2023-01-02T07:21:09.973Z,2.95
2023-01-02T07:23:36.983Z,2.96
2023-01-02T07:26:05.737Z,3.06
2023-01-02T07:28:32.757Z,2.98
2023-01-02T07:31:00.570Z,3.37
2023-01-02T07:33:30.478Z,3.34
2023-01-02T07:35:58.204Z,3.22
2023-01-02T07:38:26.004Z,2.70
2023-01-02T07:40:58.848Z,2.86
2023-01-02T07:43:26.067Z,2.87
2023-01-02T07:45:55.302Z,3.29
2023-01-02T07:48:22.042Z,3.03
2023-01-02T07:50:52.597Z,2.93
2023-01-02T07:53:19.971Z,2.87
2023-01-02T07:55:54.088Z,2.66
2023-01-02T07:58:23.577Z,2.60
2023-01-02T08:00:53.379Z,2.68
2023-01-02T08:03:26.177Z,2.67
2023-01-02T08:06:01.678Z,2.59
2023-01-02T08:08:29.099Z,2.71
2023-01-02T08:11:05.421Z,2.71
2023-01-02T08:13:38.417Z,2.82
2023-01-02T08:16:12.820Z,2.62
2023-01-02T08:18:45.489Z,2.72
2023-01-02T08:21:13.120Z,2.74
2023-01-02T08:23:40.103Z,2.62
2023-01-02T08:26:07.961Z,3.14
2023-01-02T08:28:35.196Z,2.93
2023-01-02T08:31:02.191Z,2.67
2023-01-02T08:33:28.973Z,2.66
2023-01-02T08:35:58.747Z,2.44
2023-01-02T08:38:50.281Z,2.61
2023-01-02T08:41:36.456Z,2.64
2023-01-02T08:44:03.600Z,2.75
2023-01-02T08:46:42.360Z,2.86
2023-01-02T08:49:10.072Z,2.81
2023-01-02T08:51:37.197Z,2.72
2023-01-02T08:54:09.766Z,2.78
2023-01-02T08:56:37.449Z,2.75
2023-01-02T08:59:11.728Z,2.38
2023-01-02T09:01:39.343Z,2.66
2023-01-02T09:04:11.882Z,2.83
2023-01-02T09:06:40.655Z,2.81
2023-01-02T09:09:11.917Z,2.72
2023-01-02T09:11:43.227Z,2.69
2023-01-02T09:14:13.751Z,2.71
2023-01-02T09:16:40.760Z,2.73
2023-01-02T09:19:08.564Z,2.74
2023-01-02T09:21:35.597Z,2.99
2023-01-02T09:24:02.704Z,2.77
2023-01-02T09:26:34.295Z,2.90
2023-01-02T09:29:01.206Z,2.85
2023-01-02T09:31:28.090Z,2.62
2023-01-02T09:33:55.140Z,2.90
2023-01-02T09:36:22.715Z,3.08
2023-01-02T09:39:01.989Z,3.03
2023-01-02T09:41:39.198Z,2.89
2023-01-02T09:44:26.700Z,2.53
2023-01-02T09:47:20.288Z,2.54
2023-01-02T09:49:54.332Z,2.69
2023-01-02T09:52:34.014Z,2.87
2023-01-02T09:55:01.890Z,3.04
2023-01-02T09:57:39.028Z,2.97
2023-01-02T10:00:17.657Z,3.09
2023-01-02T10:03:26.579Z,3.29
2023-01-02T10:06:23.286Z,3.31
2023-01-02T10:09:09.938Z,3.46
2023-01-02T10:12:02.734Z,3.13
2023-01-02T10:14:44.544Z,3.66
2023-01-02T10:17:17.982Z,3.23
2023-01-02T10:20:03.527Z,3.01
2023-01-02T10:22:49.755Z,3.17
2023-01-02T10:25:19.582Z,3.29
2023-01-02T10:27:51.146Z,3.42
2023-01-02T10:30:43.689Z,3.01
2023-01-02T10:33:47.838Z,3.34
2023-01-02T10:36:36.057Z,3.63
2023-01-02T10:39:24.358Z,3.43
2023-01-02T10:42:12.359Z,3.66
2023-01-02T10:44:45.660Z,3.63
2023-01-02T10:47:34.047Z,3.66
2023-01-02T10:50:00.787Z,3.33
2023-01-02T10:52:47.221Z,3.93
2023-01-02T10:55:14.361Z,3.89
2023-01-02T10:57:42.749Z,3.83
2023-01-02T11:03:12.708Z,4.16
2023-01-02T11:05:50.053Z,4.00
2023-01-02T11:08:36.051Z,4.17
2023-01-02T11:11:12.886Z,4.46
2023-01-02T11:13:53.982Z,4.29
2023-01-02T11:16:27.976Z,4.31
2023-01-02T11:18:56.226Z,4.06
2023-01-02T11:21:35.145Z,4.26
2023-01-02T11:24:22.115Z,4.23
2023-01-02T11:26:51.320Z,3.70
2023-01-02T11:29:38.541Z,4.40
2023-01-02T11:32:25.383Z,4.44
2023-01-02T11:34:59.435Z,4.47
2023-01-02T11:37:28.411Z,4.01
2023-01-02T11:40:11.835Z,4.04
2023-01-02T11:42:45.986Z,3.98
2023-01-02T11:45:17.222Z,3.99
2023-01-02T11:48:04.769Z,4.41
2023-01-02T11:50:35.470Z,4.41
2023-01-02T11:53:59.149Z,4.16
2023-01-02T11:56:34.761Z,4.66
2023-01-02T11:59:36.393Z,5.19
2023-01-02T12:02:12.519Z,4.82
2023-01-02T12:04:41.985Z,4.96
2023-01-02T12:07:46.235Z,4.59
2023-01-02T12:10:54.219Z,4.82
2023-01-02T12:13:53.132Z,5.65
2023-01-02T12:16:58.966Z,5.02
2023-01-02T12:19:51.015Z,4.69
2023-01-02T12:22:54.996Z,4.62
2023-01-02T12:26:09.360Z,4.77
2023-01-02T12:29:00.225Z,4.95
2023-01-02T12:32:08.645Z,4.70
2023-01-02T12:34:53.582Z,5.41
2023-01-02T12:37:47.835Z,4.66
2023-01-02T12:40:39.720Z,4.27
2023-01-02T12:43:45.408Z,4.45
2023-01-02T12:46:39.858Z,4.66
2023-01-02T12:49:55.029Z,4.80
2023-01-02T12:52:47.579Z,4.77
2023-01-02T12:55:31.919Z,4.77
2023-01-02T12:58:18.386Z,4.08
2023-01-02T13:01:19.431Z,4.73
2023-01-02T13:04:29.261Z,5.09
2023-01-02T13:07:12.829Z,5.08
2023-01-02T13:09:41.102Z,4.40
2023-01-02T13:12:16.860Z,4.09
2023-01-02T13:15:09.220Z,4.22
2023-01-02T13:18:10.476Z,4.70
2023-01-02T13:20:43.666Z,4.39
2023-01-02T13:23:43.305Z,4.62
2023-01-02T13:26:11.211Z,4.57
2023-01-02T13:29:03.788Z,4.54
2023-01-02T13:31:46.555Z,4.67
2023-01-02T13:34:27.940Z,4.89
2023-01-02T13:37:24.765Z,4.98
2023-01-02T13:40:02.171Z,4.81
2023-01-02T13:42:48.762Z,4.65
2023-01-02T13:45:41.680Z,4.07
2023-01-02T13:48:40.969Z,4.02
2023-01-02T13:51:13.534Z,4.37
2023-01-02T13:53:44.097Z,3.79
2023-01-02T13:56:16.068Z,3.97
2023-01-02T13:59:43.089Z,3.88
2023-01-02T14:02:19.112Z,4.00
2023-01-02T14:04:46.310Z,4.36
2023-01-02T14:07:31.128Z,4.12
2023-01-02T14:10:10.395Z,4.43
2023-01-02T14:12:42.336Z,4.05
2023-01-02T14:15:20.033Z,3.89
2023-01-02T14:18:06.452Z,4.38
2023-01-02T14:20:34.643Z,4.40
2023-01-02T14:23:06.401Z,3.81
2023-01-02T14:25:33.206Z,3.73
2023-01-02T14:28:02.191Z,3.67
2023-01-02T14:30:43.559Z,4.07
2023-01-02T14:33:15.561Z,4.29
2023-01-02T14:35:53.954Z,3.90
2023-01-02T14:38:36.167Z,4.17
2023-01-02T14:41:03.158Z,4.41
2023-01-02T14:43:34.723Z,4.13
2023-01-02T14:49:00.018Z,4.43
2023-01-02T14:51:48.980Z,4.08
2023-01-02T14:54:26.613Z,4.43
2023-01-02T14:57:07.053Z,4.18
2023-01-02T14:59:37.301Z,4.31
2023-01-02T15:02:19.098Z,4.46
2023-01-02T15:04:52.296Z,4.50
2023-01-02T15:07:29.416Z,4.26
2023-01-02T15:10:03.818Z,4.03
2023-01-02T15:12:32.299Z,3.90
2023-01-02T15:14:59.241Z,3.73
2023-01-02T15:17:26.166Z,4.03
2023-01-02T15:19:53.269Z,3.77
2023-01-02T15:22:22.200Z,3.92
2023-01-02T15:24:52.881Z,3.76
2023-01-02T15:27:27.372Z,3.95
2023-01-02T15:29:57.532Z,3.82
2023-01-02T15:32:29.421Z,3.70
2023-01-02T15:35:21.658Z,3.97
2023-01-02T15:37:50.889Z,3.92
2023-01-02T15:40:18.920Z,4.33
2023-01-02T15:42:46.007Z,4.07
2023-01-02T15:45:14.298Z,4.09
2023-01-02T15:47:46.653Z,4.28
2023-01-02T15:50:24.383Z,4.46
2023-01-02T15:53:06.113Z,3.91
2023-01-02T15:55:41.339Z,3.79
2023-01-02T15:58:22.132Z,3.88
2023-01-02T16:01:14.844Z,4.32
2023-01-02T16:04:03.380Z,4.25
2023-01-02T16:06:37.452Z,4.92
2023-01-02T16:09:30.463Z,4.36
2023-01-02T16:11:59.522Z,4.25
2023-01-02T16:14:42.061Z,4.32
2023-01-02T16:17:37.243Z,4.57
2023-01-02T16:20:07.918Z,4.80
2023-01-02T16:23:00.042Z,3.84
2023-01-02T16:25:35.361Z,4.28
2023-01-02T16:28:35.664Z,4.56
2023-01-02T16:31:14.873Z,4.19
2023-01-02T16:33:41.853Z,4.19
2023-01-02T16:36:21.207Z,4.14
2023-01-02T16:38:57.665Z,4.17
2023-01-02T16:41:50.305Z,4.15
2023-01-02T16:44:22.684Z,4.61
2023-01-02T16:47:00.381Z,4.78
2023-01-02T16:49:27.308Z,4.93
2023-01-02T16:51:58.822Z,4.85
2023-01-02T16:54:25.565Z,5.02
2023-01-02T16:56:58.031Z,4.58
2023-01-02T16:59:25.113Z,4.87
2023-01-02T17:01:57.740Z,4.98
2023-01-02T17:04:27.127Z,4.91
2023-01-02T17:06:55.535Z,5.29
2023-01-02T17:09:22.505Z,5.19
2023-01-02T17:11:49.573Z,5.06
2023-01-02T17:14:16.611Z,4.98
2023-01-02T17:16:44.281Z,4.98
2023-01-02T17:19:13.781Z,5.09
2023-01-02T17:21:40.854Z,4.63
2023-01-02T17:24:07.876Z,4.97
2023-01-02T17:26:34.555Z,5.07
2023-01-02T17:29:01.603Z,4.70
2023-01-02T17:31:30.646Z,4.68
2023-01-02T17:34:00.262Z,4.50
2023-01-02T17:36:33.306Z,4.30
2023-01-02T17:39:00.396Z,4.32
2023-01-02T17:41:27.473Z,4.45
2023-01-02T17:44:01.237Z,4.36
2023-01-02T17:47:09.505Z,4.48
2023-01-02T17:49:19.848Z,4.37
2023-01-02T17:51:48.406Z,4.53
2023-01-02T17:54:15.445Z,4.90
2023-01-02T17:56:42.195Z,4.50
2023-01-02T17:59:11.784Z,4.55
2023-01-02T18:01:38.893Z,4.47
2023-01-02T18:04:05.835Z,5.33
2023-01-02T18:06:35.269Z,7.36
2023-01-02T18:09:02.578Z,10.20
2023-01-02T18:11:29.524Z,14.14
2023-01-02T18:13:56.521Z,7.31
2023-01-02T18:16:25.912Z,5.99
2023-01-02T18:18:53.724Z,4.92
2023-01-02T18:21:22.464Z,4.74
2023-01-02T18:23:54.034Z,5.08
2023-01-02T18:26:20.864Z,4.79
2023-01-02T18:28:50.924Z,5.70
2023-01-02T18:31:18.843Z,7.42
2023-01-02T18:33:47.664Z,6.96
2023-01-02T18:36:23.910Z,5.43
2023-01-02T18:38:57.255Z,5.20
2023-01-02T18:41:26.618Z,5.10
2023-01-02T18:43:59.765Z,6.43
2023-01-02T18:47:04.672Z,4.82
2023-01-02T18:49:30.892Z,4.58
2023-01-02T18:52:15.310Z,4.55
2023-01-02T18:54:45.565Z,4.63
2023-01-02T18:57:16.972Z,5.05
2023-01-02T18:59:50.413Z,4.79
2023-01-02T19:02:27.997Z,5.93
2023-01-02T19:05:17.868Z,6.69
2023-01-02T19:08:15.016Z,4.89
2023-01-02T19:11:01.564Z,5.29
2023-01-02T19:13:37.309Z,5.36
2023-01-02T19:16:10.339Z,5.03
2023-01-02T19:18:43.982Z,5.28
2023-01-02T19:21:29.481Z,5.72
2023-01-02T19:24:10.645Z,5.93
2023-01-02T19:26:42.564Z,5.89
2023-01-02T19:29:22.103Z,6.18
2023-01-02T19:32:28.131Z,7.46
2023-01-02T19:35:35.204Z,7.89
2023-01-02T19:38:28.575Z,7.94
2023-01-02T19:40:56.020Z,7.58
2023-01-02T19:43:23.655Z,6.67
2023-01-02T19:45:50.694Z,6.47
2023-01-02T19:48:18.396Z,6.56
2023-01-02T19:50:45.720Z,6.05
2023-01-02T19:53:12.756Z,6.79
2023-01-02T19:55:39.803Z,5.91
2023-01-02T19:58:06.816Z,6.84
2023-01-02T20:00:39.404Z,5.77
2023-01-02T20:03:08.400Z,6.18
2023-01-02T20:05:35.464Z,5.18
2023-01-02T20:08:02.416Z,5.16
2023-01-02T20:10:29.810Z,5.17
2023-01-02T20:12:59.371Z,5.23
2023-01-02T20:15:31.280Z,5.01
2023-01-02T20:18:05.035Z,5.18
2023-01-02T20:20:40.782Z,5.81
2023-01-02T20:23:13.626Z,5.33
2023-01-02T20:25:42.673Z,6.27
2023-01-02T20:30:37.776Z,6.70
2023-01-02T20:33:04.741Z,6.28
2023-01-02T20:35:31.700Z,6.00
2023-01-02T20:37:58.682Z,5.79
2023-01-02T20:40:25.822Z,6.30
2023-01-02T20:42:52.784Z,6.96
2023-01-02T20:45:22.324Z,6.04
2023-01-02T20:47:49.288Z,4.93
2023-01-02T20:50:16.508Z,4.90
2023-01-02T20:52:56.247Z,5.37
2023-01-02T20:55:23.947Z,5.33
2023-01-02T20:57:51.671Z,5.07
2023-01-02T21:00:20.494Z,5.01
2023-01-02T21:02:53.527Z,4.71
2023-01-02T21:05:20.680Z,5.16
2023-01-02T21:07:48.128Z,5.35
2023-01-02T21:10:15.546Z,5.29
2023-01-02T21:12:42.995Z,5.06
2023-01-02T21:15:10.278Z,5.18
2023-01-02T21:17:39.374Z,5.40
2023-01-02T21:20:07.760Z,5.42
2023-01-02T21:22:34.495Z,5.14
2023-01-02T21:25:01.436Z,5.44
2023-01-02T21:27:34.129Z,5.88
2023-01-02T21:30:03.258Z,6.44
2023-01-02T21:32:30.006Z,6.19
2023-01-02T21:35:02.578Z,5.86
2023-01-02T21:37:29.561Z,5.71
2023-01-02T21:39:56.630Z,5.85
2023-01-02T21:42:25.689Z,5.85
2023-01-02T21:44:52.736Z,5.93
2023-01-02T21:47:24.614Z,6.18
2023-01-02T21:49:57.169Z,5.85
2023-01-02T21:52:29.926Z,5.75
2023-01-02T21:54:58.914Z,5.98
2023-01-02T21:58:02.855Z,5.53
2023-01-02T22:00:23.276Z,5.92
2023-01-02T22:02:53.669Z,5.95
2023-01-02T22:05:23.258Z,6.19
2023-01-02T22:07:50.200Z,6.02
2023-01-02T22:10:17.018Z,6.15
2023-01-02T22:12:43.955Z,6.26
2023-01-02T22:15:14.325Z,6.42
2023-01-02T22:17:46.283Z,6.09
2023-01-02T22:20:16.898Z,6.60
2023-01-02T22:22:45.524Z,6.57
2023-01-02T22:25:12.524Z,6.26
2023-01-02T22:27:39.477Z,6.38
2023-01-02T22:30:31.477Z,6.08
2023-01-02T22:32:54.950Z,6.19
2023-01-02T22:35:22.019Z,6.54
2023-01-02T22:37:48.988Z,6.60
2023-01-02T22:40:20.851Z,6.21
2023-01-02T22:43:05.318Z,6.35
2023-01-02T22:45:49.807Z,6.28
2023-01-02T22:48:28.074Z,6.52
2023-01-02T22:50:56.483Z,6.81
2023-01-02T22:53:31.730Z,6.68
2023-01-02T22:55:58.825Z,6.49
2023-01-02T22:58:26.826Z,6.53
2023-01-02T23:01:01.365Z,6.40
2023-01-02T23:03:29.375Z,6.81
2023-01-02T23:05:56.765Z,6.97
2023-01-02T23:08:23.878Z,7.43
2023-01-02T23:10:50.761Z,7.43
2023-01-02T23:13:20.448Z,6.55
2023-01-02T23:15:49.310Z,6.93
2023-01-02T23:18:16.263Z,6.67
2023-01-02T23:20:43.279Z,7.86
2023-01-02T23:23:10.335Z,7.32
2023-01-02T23:25:46.383Z,7.17
2023-01-02T23:28:26.025Z,7.24
2023-01-02T23:31:00.535Z,6.97
2023-01-02T23:33:27.541Z,7.11
2023-01-02T23:35:57.334Z,7.20
2023-01-02T23:38:24.289Z,7.46
2023-01-02T23:40:51.305Z,6.83
2023-01-02T23:43:18.560Z,6.85
2023-01-02T23:45:47.617Z,8.74
2023-01-02T23:48:14.724Z,11.49
2023-01-02T23:50:43.836Z,8.25
2023-01-02T23:53:10.642Z,6.91
2023-01-02T23:55:41.000Z,6.84
2023-01-02T23:58:10.706Z,7.37
